Montgomery, IN

5:56 AM EDT on October 20, 2014 (GMT -0400)
Daviess County | Change Station
CLOSE
Current Station
Airport
Location: Daviess Cnty AP, Washington,,
Elevation: 472 ft
Nearby Weather Stations

Elev 472 ft 38.70 °N, 87.13 °W | Updated 21 minutes ago

Overcast
Overcast
50 °F
Feels Like 50 °F
N
10
Wind Variable Wind from SSW

Today
High -- | Low -- °F
--% Chance of Precip.
Yesterday
High -- | Low -- °F
Precip. -- in
8:02 AM 7:02 PM
Waning Crescent, 12% visible
Pressure 29.99 in
Visibility 10.0 miles
Clouds Scattered Clouds 11000 ft
Dew Point 46 °F
Humidity 84%
Rainfall 0.00 in
Snow Depth Not available.
UV 0 out of 12
Pollen 1.80 out of 12
Air Quality Not available.
Flu Activity Sporadic
METAR KDCY 200935Z AUTO 21009KT 10SM SCT110 10/08 A2999 RMK AO2 T01030077

More Conditions Fewer Conditions

Pressure 29.99 in
Visibility 10.0 miles
Clouds Scattered Clouds 11000 ft
Dew Point 46 °F
Humidity 84%
Rainfall 0.00 in
Snow Depth Not available.
UV 0 out of 12
Pollen 1.80 out of 12
Air Quality Not available.
Flu Activity Sporadic
METAR KDCY 200935Z AUTO 21009KT 10SM SCT110 10/08 A2999 RMK AO2 T01030077

More Conditions Fewer Conditions

10-Day Weather Forecast

Almanac

Astronomy

Oct. 20, 2014 Rise Set
Actual Time 8:02 AM EDT 7:02 PM EDT
Civil Twilight 7:35 AM EDT 7:29 PM EDT
Nautical Twilight 7:04 AM EDT 8:00 PM EDT
Astronomical Twilight 6:33 AM EDT 8:31 PM EDT
Moon 4:52 AM EDT 5:23 PM EDT
Length of Visible Light 11h 54m
Length of Day
11h 00m
Waning Crescent, 12% of the Moon is Illuminated
Today
Waning Crescent
Oct 23
New
Oct 30
First Quarter
Nov 6
Full
Nov 14
Last Quarter

Today's Extremes

State Highs State Lows

Community

WunderPhotos

Upload Photos

1,763,325 photos uploaded!

Nearby

Snow Depth

Station Depth Elevation
No new snow has been reported.

Earthquake Activity

City Distance Mag. Time & Date
No recent earthquake activity has been reported nearby.
Minimum magnitude displayed is 2.5.

Coastal Water Temperatures

Place Temperature
No Stations Reporting

Nearby Weather Stations